sensor_id;sensor_type;location;lat;lon;timestamp;temperature;humidity
22360;DHT22;11347;52.030;4.690;2023-06-05T11:49:05;27.70;27.30
22360;DHT22;11347;52.030;4.690;2023-06-05T11:51:35;27.70;27.60
22360;DHT22;11347;52.030;4.690;2023-06-05T11:54:01;28.10;27.00
22360;DHT22;11347;52.030;4.690;2023-06-05T11:56:33;28.40;27.20
22360;DHT22;11347;52.030;4.690;2023-06-05T11:58:58;28.60;27.00
22360;DHT22;11347;52.030;4.690;2023-06-05T12:01:24;29.00;26.00
22360;DHT22;11347;52.030;4.690;2023-06-05T12:04:06;29.50;25.50
22360;DHT22;11347;52.030;4.690;2023-06-05T12:06:32;30.00;24.50
22360;DHT22;11347;52.030;4.690;2023-06-05T12:09:12;30.50;24.60
22360;DHT22;11347;52.030;4.690;2023-06-05T12:11:39;31.00;24.20
22360;DHT22;11347;52.030;4.690;2023-06-05T12:14:05;31.60;23.70
22360;DHT22;11347;52.030;4.690;2023-06-05T12:16:38;32.10;23.20
22360;DHT22;11347;52.030;4.690;2023-06-05T12:19:12;32.40;22.10
22360;DHT22;11347;52.030;4.690;2023-06-05T12:21:38;32.90;22.40
22360;DHT22;11347;52.030;4.690;2023-06-05T12:24:04;33.30;21.50
22360;DHT22;11347;52.030;4.690;2023-06-05T12:26:57;33.50;21.50
22360;DHT22;11347;52.030;4.690;2023-06-05T12:29:30;33.80;21.30
22360;DHT22;11347;52.030;4.690;2023-06-05T12:32:00;34.10;20.30
22360;DHT22;11347;52.030;4.690;2023-06-05T12:34:43;34.20;20.10
22360;DHT22;11347;52.030;4.690;2023-06-05T12:37:25;34.40;20.10
22360;DHT22;11347;52.030;4.690;2023-06-05T12:39:53;34.80;19.90
22360;DHT22;11347;52.030;4.690;2023-06-05T12:42:19;34.70;20.10
22360;DHT22;11347;52.030;4.690;2023-06-05T12:44:44;34.90;19.50
22360;DHT22;11347;52.030;4.690;2023-06-05T12:47:10;34.90;19.90
22360;DHT22;11347;52.030;4.690;2023-06-05T12:49:35;35.30;19.40
22360;DHT22;11347;52.030;4.690;2023-06-05T12:52:02;35.50;19.20
22360;DHT22;11347;52.030;4.690;2023-06-05T12:54:28;35.60;18.30
22360;DHT22;11347;52.030;4.690;2023-06-05T12:56:56;35.60;19.10
22360;DHT22;11347;52.030;4.690;2023-06-05T12:59:22;35.70;18.30
22360;DHT22;11347;52.030;4.690;2023-06-05T13:01:47;35.60;19.10
22360;DHT22;11347;52.030;4.690;2023-06-05T13:04:13;35.70;18.90
22360;DHT22;11347;52.030;4.690;2023-06-05T13:06:40;35.80;18.90
22360;DHT22;11347;52.030;4.690;2023-06-05T13:09:06;36.10;18.30
22360;DHT22;11347;52.030;4.690;2023-06-05T13:11:32;36.10;18.40
22360;DHT22;11347;52.030;4.690;2023-06-05T13:13:58;36.40;18.50
22360;DHT22;11347;52.030;4.690;2023-06-05T13:16:23;36.50;17.60
22360;DHT22;11347;52.030;4.690;2023-06-05T13:18:49;36.10;18.40
22360;DHT22;11347;52.030;4.690;2023-06-05T13:21:15;35.80;18.10
22360;DHT22;11347;52.030;4.690;2023-06-05T13:23:40;35.80;18.20
22360;DHT22;11347;52.030;4.690;2023-06-05T13:26:06;35.70;18.60
22360;DHT22;11347;52.030;4.690;2023-06-05T13:28:32;35.40;17.90
22360;DHT22;11347;52.030;4.690;2023-06-05T13:30:57;34.70;19.50
22360;DHT22;11347;52.030;4.690;2023-06-05T13:33:23;34.90;19.60
22360;DHT22;11347;52.030;4.690;2023-06-05T13:35:50;35.00;19.30
22360;DHT22;11347;52.030;4.690;2023-06-05T13:38:16;35.00;19.30
22360;DHT22;11347;52.030;4.690;2023-06-05T13:40:41;35.20;20.20
22360;DHT22;11347;52.030;4.690;2023-06-05T13:43:08;35.50;19.40
22360;DHT22;11347;52.030;4.690;2023-06-05T13:45:34;35.60;18.50
22360;DHT22;11347;52.030;4.690;2023-06-05T13:47:59;35.40;18.70
22360;DHT22;11347;52.030;4.690;2023-06-05T13:50:25;35.40;18.50
22360;DHT22;11347;52.030;4.690;2023-06-05T13:52:51;35.40;18.10
22360;DHT22;11347;52.030;4.690;2023-06-05T13:55:16;34.90;19.10
22360;DHT22;11347;52.030;4.690;2023-06-05T13:57:42;34.70;19.30
22360;DHT22;11347;52.030;4.690;2023-06-05T14:00:08;34.40;19.90
22360;DHT22;11347;52.030;4.690;2023-06-05T14:02:33;33.50;20.20
22360;DHT22;11347;52.030;4.690;2023-06-05T14:04:59;32.70;21.10
22360;DHT22;11347;52.030;4.690;2023-06-05T14:07:25;31.90;22.10
22360;DHT22;11347;52.030;4.690;2023-06-05T14:09:51;31.10;23.40
22360;DHT22;11347;52.030;4.690;2023-06-05T14:12:16;30.20;24.40
22360;DHT22;11347;52.030;4.690;2023-06-05T14:14:43;29.50;24.60
22360;DHT22;11347;52.030;4.690;2023-06-05T14:17:08;28.70;24.90
22360;DHT22;11347;52.030;4.690;2023-06-05T14:19:34;28.10;26.10
22360;DHT22;11347;52.030;4.690;2023-06-05T14:21:59;27.60;27.50
22360;DHT22;11347;52.030;4.690;2023-06-05T14:24:25;27.00;28.30
22360;DHT22;11347;52.030;4.690;2023-06-05T14:26:52;26.60;28.40
22360;DHT22;11347;52.030;4.690;2023-06-05T14:29:18;26.20;28.90
22360;DHT22;11347;52.030;4.690;2023-06-05T14:31:43;25.90;29.20
22360;DHT22;11347;52.030;4.690;2023-06-05T14:34:09;25.60;30.30
22360;DHT22;11347;52.030;4.690;2023-06-05T14:36:35;25.30;30.50
22360;DHT22;11347;52.030;4.690;2023-06-05T14:39:01;25.00;30.50
22360;DHT22;11347;52.030;4.690;2023-06-05T14:41:28;24.70;32.00
22360;DHT22;11347;52.030;4.690;2023-06-05T14:43:55;24.50;32.30
22360;DHT22;11347;52.030;4.690;2023-06-05T14:46:20;24.40;31.90
22360;DHT22;11347;52.030;4.690;2023-06-05T14:48:46;24.20;32.80
22360;DHT22;11347;52.030;4.690;2023-06-05T14:51:12;23.90;33.00
22360;DHT22;11347;52.030;4.690;2023-06-05T14:53:37;23.70;33.50
22360;DHT22;11347;52.030;4.690;2023-06-05T14:56:03;23.70;32.70
22360;DHT22;11347;52.030;4.690;2023-06-05T14:58:29;23.50;33.00
22360;DHT22;11347;52.030;4.690;2023-06-05T15:00:55;23.40;34.70
22360;DHT22;11347;52.030;4.690;2023-06-05T15:03:20;23.30;34.60
22360;DHT22;11347;52.030;4.690;2023-06-05T15:05:46;23.20;35.40
22360;DHT22;11347;52.030;4.690;2023-06-05T15:08:11;23.10;34.90
22360;DHT22;11347;52.030;4.690;2023-06-05T15:10:37;23.00;36.20
22360;DHT22;11347;52.030;4.690;2023-06-05T15:13:03;23.00;36.30
22360;DHT22;11347;52.030;4.690;2023-06-05T15:15:28;23.00;35.90
22360;DHT22;11347;52.030;4.690;2023-06-05T15:17:54;22.80;35.30
22360;DHT22;11347;52.030;4.690;2023-06-05T15:20:20;22.90;35.10
22360;DHT22;11347;52.030;4.690;2023-06-05T15:22:46;22.90;34.90
22360;DHT22;11347;52.030;4.690;2023-06-05T15:25:14;22.90;35.50
22360;DHT22;11347;52.030;4.690;2023-06-05T15:27:40;22.80;36.30
22360;DHT22;11347;52.030;4.690;2023-06-05T15:30:07;22.70;36.60
22360;DHT22;11347;52.030;4.690;2023-06-05T15:32:33;22.70;37.00
22360;DHT22;11347;52.030;4.690;2023-06-05T15:34:58;22.60;37.00
22360;DHT22;11347;52.030;4.690;2023-06-05T15:37:24;22.60;37.30
22360;DHT22;11347;52.030;4.690;2023-06-05T15:39:50;22.60;36.80
22360;DHT22;11347;52.030;4.690;2023-06-05T15:42:27;22.60;37.30
22360;DHT22;11347;52.030;4.690;2023-06-05T15:47:33;22.40;37.40
22360;DHT22;11347;52.030;4.690;2023-06-05T15:50:00;22.50;39.60
22360;DHT22;11347;52.030;4.690;2023-06-05T15:52:25;22.30;38.40
22360;DHT22;11347;52.030;4.690;2023-06-05T15:54:54;22.30;38.70
22360;DHT22;11347;52.030;4.690;2023-06-05T15:57:20;22.30;38.50
22360;DHT22;11347;52.030;4.690;2023-06-05T15:59:46;22.30;38.20
22360;DHT22;11347;52.030;4.690;2023-06-05T16:02:11;22.20;38.00
22360;DHT22;11347;52.030;4.690;2023-06-05T16:04:37;22.20;38.30
22360;DHT22;11347;52.030;4.690;2023-06-05T16:07:03;22.30;38.80
22360;DHT22;11347;52.030;4.690;2023-06-05T16:09:28;22.20;38.40
22360;DHT22;11347;52.030;4.690;2023-06-05T16:11:54;22.20;38.50
22360;DHT22;11347;52.030;4.690;2023-06-05T16:14:22;22.20;38.60
22360;DHT22;11347;52.030;4.690;2023-06-05T16:16:51;22.10;39.10
22360;DHT22;11347;52.030;4.690;2023-06-05T16:19:21;22.00;39.00
22360;DHT22;11347;52.030;4.690;2023-06-05T16:21:46;22.00;38.80
22360;DHT22;11347;52.030;4.690;2023-06-05T16:24:13;22.00;39.00
22360;DHT22;11347;52.030;4.690;2023-06-05T16:26:39;22.00;38.90
22360;DHT22;11347;52.030;4.690;2023-06-05T16:29:05;22.00;39.00
22360;DHT22;11347;52.030;4.690;2023-06-05T16:31:31;21.80;38.80
22360;DHT22;11347;52.030;4.690;2023-06-05T16:33:56;21.80;38.80
22360;DHT22;11347;52.030;4.690;2023-06-05T16:36:22;21.80;39.20
22360;DHT22;11347;52.030;4.690;2023-06-05T16:38:48;21.80;38.80
22360;DHT22;11347;52.030;4.690;2023-06-05T16:41:14;21.70;38.70
22360;DHT22;11347;52.030;4.690;2023-06-05T16:43:39;21.70;39.40
22360;DHT22;11347;52.030;4.690;2023-06-05T16:46:05;21.70;38.70
22360;DHT22;11347;52.030;4.690;2023-06-05T16:48:31;21.70;39.70
22360;DHT22;11347;52.030;4.690;2023-06-05T16:50:57;21.60;40.30
22360;DHT22;11347;52.030;4.690;2023-06-05T16:53:23;21.60;39.40
22360;DHT22;11347;52.030;4.690;2023-06-05T16:55:48;21.50;38.50
22360;DHT22;11347;52.030;4.690;2023-06-05T16:58:14;21.50;38.70
22360;DHT22;11347;52.030;4.690;2023-06-05T17:00:40;21.50;38.50
22360;DHT22;11347;52.030;4.690;2023-06-05T17:03:06;21.50;38.50
22360;DHT22;11347;52.030;4.690;2023-06-05T17:05:31;21.40;38.70
22360;DHT22;11347;52.030;4.690;2023-06-05T17:07:57;21.40;39.80
22360;DHT22;11347;52.030;4.690;2023-06-05T17:10:22;21.40;39.30
22360;DHT22;11347;52.030;4.690;2023-06-05T17:12:48;21.30;39.20
22360;DHT22;11347;52.030;4.690;2023-06-05T17:15:14;21.30;39.30
22360;DHT22;11347;52.030;4.690;2023-06-05T17:17:39;21.30;38.60
22360;DHT22;11347;52.030;4.690;2023-06-05T17:20:06;21.20;38.80
22360;DHT22;11347;52.030;4.690;2023-06-05T17:22:33;21.10;38.10
22360;DHT22;11347;52.030;4.690;2023-06-05T17:24:59;21.00;38.10
22360;DHT22;11347;52.030;4.690;2023-06-05T17:27:25;21.00;37.90
22360;DHT22;11347;52.030;4.690;2023-06-05T17:29:50;20.90;38.50
22360;DHT22;11347;52.030;4.690;2023-06-05T17:32:16;20.90;38.40
22360;DHT22;11347;52.030;4.690;2023-06-05T17:34:42;20.90;38.70
22360;DHT22;11347;52.030;4.690;2023-06-05T17:37:07;20.90;39.60
22360;DHT22;11347;52.030;4.690;2023-06-05T17:39:33;20.80;40.00
22360;DHT22;11347;52.030;4.690;2023-06-05T17:42:01;20.80;40.50
22360;DHT22;11347;52.030;4.690;2023-06-05T17:44:27;20.80;40.70
22360;DHT22;11347;52.030;4.690;2023-06-05T17:46:53;20.70;41.20
22360;DHT22;11347;52.030;4.690;2023-06-05T17:49:18;20.70;41.60
22360;DHT22;11347;52.030;4.690;2023-06-05T17:51:45;20.70;42.10
22360;DHT22;11347;52.030;4.690;2023-06-05T17:54:11;20.70;42.40
22360;DHT22;11347;52.030;4.690;2023-06-05T17:56:36;20.50;42.70
22360;DHT22;11347;52.030;4.690;2023-06-05T17:59:03;20.50;42.70
22360;DHT22;11347;52.030;4.690;2023-06-05T18:01:29;20.50;43.00
22360;DHT22;11347;52.030;4.690;2023-06-05T18:03:55;20.40;43.70
22360;DHT22;11347;52.030;4.690;2023-06-05T18:06:20;20.30;44.40
22360;DHT22;11347;52.030;4.690;2023-06-05T18:08:46;20.20;44.60
22360;DHT22;11347;52.030;4.690;2023-06-05T18:11:14;20.20;45.40
22360;DHT22;11347;52.030;4.690;2023-06-05T18:13:47;20.20;45.70
22360;DHT22;11347;52.030;4.690;2023-06-05T18:16:15;20.10;45.40
22360;DHT22;11347;52.030;4.690;2023-06-05T18:18:40;20.00;45.60
22360;DHT22;11347;52.030;4.690;2023-06-05T18:21:06;20.00;46.10
22360;DHT22;11347;52.030;4.690;2023-06-05T18:23:40;19.90;45.80
22360;DHT22;11347;52.030;4.690;2023-06-05T18:26:07;19.80;45.90
22360;DHT22;11347;52.030;4.690;2023-06-05T18:28:33;19.80;45.90
22360;DHT22;11347;52.030;4.690;2023-06-05T18:30:59;19.70;46.60
22360;DHT22;11347;52.030;4.690;2023-06-05T18:33:25;19.60;48.40
22360;DHT22;11347;52.030;4.690;2023-06-05T18:35:53;19.60;47.70
22360;DHT22;11347;52.030;4.690;2023-06-05T18:38:18;19.50;47.60
22360;DHT22;11347;52.030;4.690;2023-06-05T18:40:44;19.40;47.50
22360;DHT22;11347;52.030;4.690;2023-06-05T18:43:09;19.30;48.10
22360;DHT22;11347;52.030;4.690;2023-06-05T18:45:35;19.20;48.40
22360;DHT22;11347;52.030;4.690;2023-06-05T18:48:01;19.10;48.30
22360;DHT22;11347;52.030;4.690;2023-06-05T18:50:27;19.00;48.90
22360;DHT22;11347;52.030;4.690;2023-06-05T18:52:54;19.00;49.20
22360;DHT22;11347;52.030;4.690;2023-06-05T18:55:19;18.90;50.40
22360;DHT22;11347;52.030;4.690;2023-06-05T18:57:45;18.80;50.80
22360;DHT22;11347;52.030;4.690;2023-06-05T19:00:11;18.70;50.80
22360;DHT22;11347;52.030;4.690;2023-06-05T19:02:36;18.60;51.10
22360;DHT22;11347;52.030;4.690;2023-06-05T19:05:02;18.60;51.20
22360;DHT22;11347;52.030;4.690;2023-06-05T19:07:28;18.50;50.70
22360;DHT22;11347;52.030;4.690;2023-06-05T19:09:53;18.40;51.50
22360;DHT22;11347;52.030;4.690;2023-06-05T19:12:19;18.30;52.20
22360;DHT22;11347;52.030;4.690;2023-06-05T19:14:44;18.30;52.80
22360;DHT22;11347;52.030;4.690;2023-06-05T19:17:13;18.10;53.00
22360;DHT22;11347;52.030;4.690;2023-06-05T19:19:38;18.10;54.00
22360;DHT22;11347;52.030;4.690;2023-06-05T19:22:04;18.00;53.60
22360;DHT22;11347;52.030;4.690;2023-06-05T19:24:30;18.00;53.80
22360;DHT22;11347;52.030;4.690;2023-06-05T19:26:55;17.90;54.40
22360;DHT22;11347;52.030;4.690;2023-06-05T19:29:21;17.80;55.10
22360;DHT22;11347;52.030;4.690;2023-06-05T19:31:46;17.70;56.20
22360;DHT22;11347;52.030;4.690;2023-06-05T19:34:12;17.60;56.50
22360;DHT22;11347;52.030;4.690;2023-06-05T19:36:38;17.70;56.60
22360;DHT22;11347;52.030;4.690;2023-06-05T19:39:03;17.50;56.30
22360;DHT22;11347;52.030;4.690;2023-06-05T19:41:29;17.50;57.20
22360;DHT22;11347;52.030;4.690;2023-06-05T19:43:55;17.40;57.70
22360;DHT22;11347;52.030;4.690;2023-06-05T19:46:21;17.30;58.10
22360;DHT22;11347;52.030;4.690;2023-06-05T19:48:48;17.30;57.90
22360;DHT22;11347;52.030;4.690;2023-06-05T19:51:14;17.20;58.10
22360;DHT22;11347;52.030;4.690;2023-06-05T19:53:40;17.30;58.90
22360;DHT22;11347;52.030;4.690;2023-06-05T19:56:05;17.10;59.40
22360;DHT22;11347;52.030;4.690;2023-06-05T19:58:31;17.10;58.90
22360;DHT22;11347;52.030;4.690;2023-06-05T20:00:57;17.00;59.30
22360;DHT22;11347;52.030;4.690;2023-06-05T20:03:22;16.90;60.40
22360;DHT22;11347;52.030;4.690;2023-06-05T20:05:48;16.90;61.00
22360;DHT22;11347;52.030;4.690;2023-06-05T20:08:14;16.80;61.50
22360;DHT22;11347;52.030;4.690;2023-06-05T20:10:39;16.80;62.00
22360;DHT22;11347;52.030;4.690;2023-06-05T20:13:05;16.70;62.60
22360;DHT22;11347;52.030;4.690;2023-06-05T20:15:31;16.70;62.50
22360;DHT22;11347;52.030;4.690;2023-06-05T20:17:56;16.60;62.80
22360;DHT22;11347;52.030;4.690;2023-06-05T20:20:22;16.50;62.90
22360;DHT22;11347;52.030;4.690;2023-06-05T20:22:49;16.40;63.30
22360;DHT22;11347;52.030;4.690;2023-06-05T20:25:14;16.30;63.60
22360;DHT22;11347;52.030;4.690;2023-06-05T20:27:44;16.30;64.00
22360;DHT22;11347;52.030;4.690;2023-06-05T20:30:09;16.20;64.00
22360;DHT22;11347;52.030;4.690;2023-06-05T20:32:35;16.20;63.90
22360;DHT22;11347;52.030;4.690;2023-06-05T20:35:01;16.10;63.90
22360;DHT22;11347;52.030;4.690;2023-06-05T20:37:26;16.10;64.70
22360;DHT22;11347;52.030;4.690;2023-06-05T20:39:56;16.00;65.10
22360;DHT22;11347;52.030;4.690;2023-06-05T20:42:22;16.00;65.70
22360;DHT22;11347;52.030;4.690;2023-06-05T20:44:51;15.90;65.90
22360;DHT22;11347;52.030;4.690;2023-06-05T20:47:22;15.90;66.00
22360;DHT22;11347;52.030;4.690;2023-06-05T20:49:49;15.90;66.00
22360;DHT22;11347;52.030;4.690;2023-06-05T20:52:14;15.80;66.20
22360;DHT22;11347;52.030;4.690;2023-06-05T20:54:40;15.70;66.60
22360;DHT22;11347;52.030;4.690;2023-06-05T20:57:12;15.70;66.60
22360;DHT22;11347;52.030;4.690;2023-06-05T20:59:40;15.70;66.70
22360;DHT22;11347;52.030;4.690;2023-06-05T21:02:09;15.60;66.80
22360;DHT22;11347;52.030;4.690;2023-06-05T21:04:35;15.60;67.10
22360;DHT22;11347;52.030;4.690;2023-06-05T21:07:01;15.50;67.10
22360;DHT22;11347;52.030;4.690;2023-06-05T21:09:27;15.50;67.40
22360;DHT22;11347;52.030;4.690;2023-06-05T21:11:52;15.40;67.80
22360;DHT22;11347;52.030;4.690;2023-06-05T21:14:18;15.30;67.70
22360;DHT22;11347;52.030;4.690;2023-06-05T21:16:43;15.30;68.10
22360;DHT22;11347;52.030;4.690;2023-06-05T21:19:09;15.30;68.80
22360;DHT22;11347;52.030;4.690;2023-06-05T21:21:34;15.20;68.80
22360;DHT22;11347;52.030;4.690;2023-06-05T21:24:00;15.20;69.30
22360;DHT22;11347;52.030;4.690;2023-06-05T21:26:26;15.10;69.70
22360;DHT22;11347;52.030;4.690;2023-06-05T21:28:52;15.10;69.90
22360;DHT22;11347;52.030;4.690;2023-06-05T21:31:18;15.10;70.40
22360;DHT22;11347;52.030;4.690;2023-06-05T21:33:43;15.00;70.40
22360;DHT22;11347;52.030;4.690;2023-06-05T21:36:09;14.90;70.30
22360;DHT22;11347;52.030;4.690;2023-06-05T21:38:35;14.90;70.30
22360;DHT22;11347;52.030;4.690;2023-06-05T21:41:00;14.90;70.80
22360;DHT22;11347;52.030;4.690;2023-06-05T21:43:26;14.80;71.00
22360;DHT22;11347;52.030;4.690;2023-06-05T21:45:51;14.80;71.10
22360;DHT22;11347;52.030;4.690;2023-06-05T21:48:17;14.80;71.40
22360;DHT22;11347;52.030;4.690;2023-06-05T21:50:43;14.70;71.80
22360;DHT22;11347;52.030;4.690;2023-06-05T21:53:08;14.70;72.40
22360;DHT22;11347;52.030;4.690;2023-06-05T21:55:34;14.70;72.50
22360;DHT22;11347;52.030;4.690;2023-06-05T21:58:00;14.60;72.80
22360;DHT22;11347;52.030;4.690;2023-06-05T22:00:25;14.60;72.90
22360;DHT22;11347;52.030;4.690;2023-06-05T22:02:51;14.60;73.10
22360;DHT22;11347;52.030;4.690;2023-06-05T22:05:17;14.50;73.20
22360;DHT22;11347;52.030;4.690;2023-06-05T22:07:43;14.50;73.60
22360;DHT22;11347;52.030;4.690;2023-06-05T22:10:09;14.60;73.90
22360;DHT22;11347;52.030;4.690;2023-06-05T22:12:34;14.40;74.20
22360;DHT22;11347;52.030;4.690;2023-06-05T22:15:03;14.40;74.40
22360;DHT22;11347;52.030;4.690;2023-06-05T22:17:30;14.40;75.00
22360;DHT22;11347;52.030;4.690;2023-06-05T22:19:57;14.40;74.80
22360;DHT22;11347;52.030;4.690;2023-06-05T22:22:23;14.40;75.00
22360;DHT22;11347;52.030;4.690;2023-06-05T22:24:49;14.40;74.90
22360;DHT22;11347;52.030;4.690;2023-06-05T22:27:16;14.40;75.20
22360;DHT22;11347;52.030;4.690;2023-06-05T22:29:45;14.30;75.50
22360;DHT22;11347;52.030;4.690;2023-06-05T22:32:11;14.30;75.50
22360;DHT22;11347;52.030;4.690;2023-06-05T22:34:37;14.30;75.90
22360;DHT22;11347;52.030;4.690;2023-06-05T22:37:05;14.30;75.90
22360;DHT22;11347;52.030;4.690;2023-06-05T22:39:31;14.20;76.20
22360;DHT22;11347;52.030;4.690;2023-06-05T22:41:57;14.20;76.70
22360;DHT22;11347;52.030;4.690;2023-06-05T22:44:23;14.20;76.90
22360;DHT22;11347;52.030;4.690;2023-06-05T22:46:53;14.10;76.70
22360;DHT22;11347;52.030;4.690;2023-06-05T22:49:18;14.10;76.70
22360;DHT22;11347;52.030;4.690;2023-06-05T22:51:45;14.10;76.70
22360;DHT22;11347;52.030;4.690;2023-06-05T22:54:13;14.20;76.80
22360;DHT22;11347;52.030;4.690;2023-06-05T22:56:39;14.10;76.70
22360;DHT22;11347;52.030;4.690;2023-06-05T22:59:04;14.10;77.40
22360;DHT22;11347;52.030;4.690;2023-06-05T23:01:30;14.10;77.20
22360;DHT22;11347;52.030;4.690;2023-06-05T23:03:56;14.00;77.60
22360;DHT22;11347;52.030;4.690;2023-06-05T23:06:22;14.00;77.80
22360;DHT22;11347;52.030;4.690;2023-06-05T23:08:47;14.00;78.00
22360;DHT22;11347;52.030;4.690;2023-06-05T23:11:13;14.00;78.10
22360;DHT22;11347;52.030;4.690;2023-06-05T23:13:39;14.00;78.10
22360;DHT22;11347;52.030;4.690;2023-06-05T23:16:05;14.00;78.00
22360;DHT22;11347;52.030;4.690;2023-06-05T23:18:31;14.00;78.00
22360;DHT22;11347;52.030;4.690;2023-06-05T23:20:56;14.00;78.20
22360;DHT22;11347;52.030;4.690;2023-06-05T23:23:22;14.00;78.20
22360;DHT22;11347;52.030;4.690;2023-06-05T23:25:47;13.90;78.40
22360;DHT22;11347;52.030;4.690;2023-06-05T23:28:13;13.90;78.60
22360;DHT22;11347;52.030;4.690;2023-06-05T23:30:39;13.90;78.80
22360;DHT22;11347;52.030;4.690;2023-06-05T23:33:06;13.90;78.50
22360;DHT22;11347;52.030;4.690;2023-06-05T23:35:32;13.90;78.70
22360;DHT22;11347;52.030;4.690;2023-06-05T23:37:58;13.90;78.40
22360;DHT22;11347;52.030;4.690;2023-06-05T23:40:24;13.90;78.50
22360;DHT22;11347;52.030;4.690;2023-06-05T23:42:53;13.80;79.10
22360;DHT22;11347;52.030;4.690;2023-06-05T23:45:19;13.90;78.80
22360;DHT22;11347;52.030;4.690;2023-06-05T23:47:44;13.80;78.80
22360;DHT22;11347;52.030;4.690;2023-06-05T23:50:11;13.80;78.90
22360;DHT22;11347;52.030;4.690;2023-06-05T23:52:37;13.80;78.90
22360;DHT22;11347;52.030;4.690;2023-06-05T23:55:03;13.80;79.00
22360;DHT22;11347;52.030;4.690;2023-06-05T23:57:30;13.70;79.30
22360;DHT22;11347;52.030;4.690;2023-06-05T23:59:55;13.70;79.40
